Sandy, OR (97055)

9:45 PM PST on December 05, 2016 (GMT -0800)
Sandy City Center | | Change Station
Active Advisory: Winter Weather Advisory

Elev 948 ft 45.40 °N, 122.27 °W | Updated 9 seconds ago

Light Rain
Light Rain
33.2 °F
Feels Like 33 °F
N
0.0
Wind Variable Wind from SSE

Today
High -- | Low -- °F
--% Chance of Precip.
Yesterday
High -- | Low -- °F
Precip. -- in
Pressure 30.03 in
Visibility 10.0 miles
Clouds Overcast 1000 ft
Windchill 33 °F
Dew Point 33 °F
Humidity 98%
Rainfall 0.02 in
Snow Depth Not available.
7:33 AM 4:26 PM
Waxing Crescent, 38% visible
METAR KTTD 060453Z 00000KT 10SM -RA OVC010 03/02 A3003 RMK AO2 RAB26 SLP168 P0000 T00330022
Pressure 30.03 in
Visibility 10.0 miles
Clouds Overcast 1000 ft
Windchill 33 °F
Dew Point 33 °F
Humidity 98%
Rainfall 0.02 in
Snow Depth Not available.
7:33 AM 4:26 PM
Waxing Crescent, 38% visible
METAR KTTD 060453Z 00000KT 10SM -RA OVC010 03/02 A3003 RMK AO2 RAB26 SLP168 P0000 T00330022

10-Day Weather Forecast

Almanac

Astronomy

Dec. 05, 2016 Rise Set
Actual Time
Civil Twilight
Nautical Twilight
Astronomical Twilight
Moon
Length of Visible Light
Length of Day
Tomorrow will be .
, % of the Moon is Illuminated

Today's Extremes

State Highs State Lows

Community

WunderPhotos

Upload Photos

1,955,931 photos uploaded!

WunderBlog® & News

Nearby

Air Quality

  Air Quality AQ Index Pollutant
Not available.

Snow Depth

Station Depth Elevation

Earthquake Activity

City Distance Mag. Time & Date
Minimum magnitude displayed is 2.5.

Coastal Water Temperatures

Place Temperature

Stations

Nearby Weather Stations

Station Location Temp. Windchill Dew Point Humidity Wind Precip. Elev Updated Type
                   

Watches & Warnings

Winter Weather Advisory
Issued: 9:01 PM PST Dec. 5, 2016 – National Weather Service

... Winter Weather Advisory remains in effect until 3 am PST
Tuesday for the north Oregon Cascade foothills...

A Winter Weather Advisory for snow remains in effect until 3 am
PST Tuesday.

* Timing... snow showers through late tonight.

* Accumulation... additional accumulations of 2 to 4 inches.

* Impacts... roads will be snow covered and slick... creating
difficult travel conditions.

Precautionary/preparedness actions...

A Winter Weather Advisory for snow means that periods of snow
will cause primarily travel difficulties. Be prepared for snow
covered roads and limited visibilities... and use caution while
driving.